sensor_id;sensor_type;location;lat;lon;timestamp;P1;durP1;ratioP1;P2;durP2;ratioP2
74245;SDS011;62601;51.044;13.788;2023-04-25T00:00:48;3.28;;;2.95;;
74245;SDS011;62601;51.044;13.788;2023-04-25T00:03:08;3.22;;;2.97;;
74245;SDS011;62601;51.044;13.788;2023-04-25T00:05:28;3.10;;;2.75;;
74245;SDS011;62601;51.044;13.788;2023-04-25T00:07:49;4.90;;;2.90;;
74245;SDS011;62601;51.044;13.788;2023-04-25T00:10:09;3.10;;;2.80;;
74245;SDS011;62601;51.044;13.788;2023-04-25T00:12:29;3.30;;;2.80;;
74245;SDS011;62601;51.044;13.788;2023-04-25T00:14:51;3.42;;;3.10;;
74245;SDS011;62601;51.044;13.788;2023-04-25T00:17:11;3.10;;;2.80;;
74245;SDS011;62601;51.044;13.788;2023-04-25T00:19:32;3.05;;;2.85;;
74245;SDS011;62601;51.044;13.788;2023-04-25T00:21:54;3.40;;;3.10;;
74245;SDS011;62601;51.044;13.788;2023-04-25T00:24:19;2.97;;;2.78;;
74245;SDS011;62601;51.044;13.788;2023-04-25T00:26:41;3.00;;;2.80;;
74245;SDS011;62601;51.044;13.788;2023-04-25T00:29:02;3.05;;;2.63;;
74245;SDS011;62601;51.044;13.788;2023-04-25T00:31:23;3.25;;;2.95;;
74245;SDS011;62601;51.044;13.788;2023-04-25T00:33:45;3.33;;;2.50;;
74245;SDS011;62601;51.044;13.788;2023-04-25T00:36:05;3.10;;;2.80;;
74245;SDS011;62601;51.044;13.788;2023-04-25T00:38:27;3.90;;;3.30;;
74245;SDS011;62601;51.044;13.788;2023-04-25T00:40:48;3.30;;;3.00;;
74245;SDS011;62601;51.044;13.788;2023-04-25T00:43:10;2.95;;;2.75;;
74245;SDS011;62601;51.044;13.788;2023-04-25T00:45:31;3.00;;;2.80;;
74245;SDS011;62601;51.044;13.788;2023-04-25T00:47:51;6.70;;;3.55;;
74245;SDS011;62601;51.044;13.788;2023-04-25T00:50:12;4.47;;;3.08;;
74245;SDS011;62601;51.044;13.788;2023-04-25T00:52:33;5.18;;;3.40;;
74245;SDS011;62601;51.044;13.788;2023-04-25T00:54:55;4.60;;;3.53;;
74245;SDS011;62601;51.044;13.788;2023-04-25T00:57:16;3.67;;;3.38;;
74245;SDS011;62601;51.044;13.788;2023-04-25T00:59:37;5.65;;;3.42;;
74245;SDS011;62601;51.044;13.788;2023-04-25T01:01:58;5.57;;;3.30;;
74245;SDS011;62601;51.044;13.788;2023-04-25T01:04:18;3.40;;;3.10;;
74245;SDS011;62601;51.044;13.788;2023-04-25T01:06:40;4.18;;;3.78;;
74245;SDS011;62601;51.044;13.788;2023-04-25T01:09:01;3.95;;;3.50;;
74245;SDS011;62601;51.044;13.788;2023-04-25T01:11:22;6.43;;;3.78;;
74245;SDS011;62601;51.044;13.788;2023-04-25T01:13:43;6.63;;;3.50;;
74245;SDS011;62601;51.044;13.788;2023-04-25T01:16:04;4.35;;;3.75;;
74245;SDS011;62601;51.044;13.788;2023-04-25T01:18:25;4.35;;;3.45;;
74245;SDS011;62601;51.044;13.788;2023-04-25T01:20:46;5.57;;;3.90;;
74245;SDS011;62601;51.044;13.788;2023-04-25T01:23:06;3.83;;;3.47;;
74245;SDS011;62601;51.044;13.788;2023-04-25T01:25:27;3.40;;;3.10;;
74245;SDS011;62601;51.044;13.788;2023-04-25T01:27:48;4.45;;;3.80;;
74245;SDS011;62601;51.044;13.788;2023-04-25T01:30:08;10.57;;;3.80;;
74245;SDS011;62601;51.044;13.788;2023-04-25T01:32:30;4.75;;;4.35;;
74245;SDS011;62601;51.044;13.788;2023-04-25T01:34:53;4.32;;;3.80;;
74245;SDS011;62601;51.044;13.788;2023-04-25T01:37:16;5.35;;;4.13;;
74245;SDS011;62601;51.044;13.788;2023-04-25T01:39:37;4.20;;;3.50;;
74245;SDS011;62601;51.044;13.788;2023-04-25T01:41:59;4.57;;;4.15;;
74245;SDS011;62601;51.044;13.788;2023-04-25T01:44:21;5.32;;;4.10;;
74245;SDS011;62601;51.044;13.788;2023-04-25T01:46:42;7.10;;;4.50;;
74245;SDS011;62601;51.044;13.788;2023-04-25T01:49:04;7.15;;;4.50;;
74245;SDS011;62601;51.044;13.788;2023-04-25T01:51:25;6.82;;;4.32;;
74245;SDS011;62601;51.044;13.788;2023-04-25T01:53:45;5.30;;;4.38;;
74245;SDS011;62601;51.044;13.788;2023-04-25T01:56:05;10.77;;;4.45;;
74245;SDS011;62601;51.044;13.788;2023-04-25T01:58:27;4.57;;;4.18;;
74245;SDS011;62601;51.044;13.788;2023-04-25T02:00:48;4.43;;;4.03;;
74245;SDS011;62601;51.044;13.788;2023-04-25T02:03:09;7.22;;;4.30;;
74245;SDS011;62601;51.044;13.788;2023-04-25T02:05:34;6.05;;;3.58;;
74245;SDS011;62601;51.044;13.788;2023-04-25T02:07:55;5.45;;;3.88;;
74245;SDS011;62601;51.044;13.788;2023-04-25T02:10:16;4.75;;;4.20;;
74245;SDS011;62601;51.044;13.788;2023-04-25T02:12:38;4.70;;;3.83;;
74245;SDS011;62601;51.044;13.788;2023-04-25T02:15:01;4.30;;;3.88;;
74245;SDS011;62601;51.044;13.788;2023-04-25T02:17:23;7.20;;;3.55;;
74245;SDS011;62601;51.044;13.788;2023-04-25T02:19:44;5.13;;;4.13;;
74245;SDS011;62601;51.044;13.788;2023-04-25T02:22:04;6.47;;;4.10;;
74245;SDS011;62601;51.044;13.788;2023-04-25T02:24:24;4.65;;;3.90;;
74245;SDS011;62601;51.044;13.788;2023-04-25T02:26:46;7.30;;;4.38;;
74245;SDS011;62601;51.044;13.788;2023-04-25T02:29:08;4.55;;;4.05;;
74245;SDS011;62601;51.044;13.788;2023-04-25T02:31:29;5.90;;;4.55;;
74245;SDS011;62601;51.044;13.788;2023-04-25T02:33:51;6.95;;;4.60;;
74245;SDS011;62601;51.044;13.788;2023-04-25T02:36:12;6.78;;;4.07;;
74245;SDS011;62601;51.044;13.788;2023-04-25T02:38:33;5.45;;;4.43;;
74245;SDS011;62601;51.044;13.788;2023-04-25T02:40:54;4.43;;;4.03;;
74245;SDS011;62601;51.044;13.788;2023-04-25T02:43:14;5.65;;;4.43;;
74245;SDS011;62601;51.044;13.788;2023-04-25T02:45:34;8.52;;;4.43;;
74245;SDS011;62601;51.044;13.788;2023-04-25T02:47:57;6.97;;;4.97;;
74245;SDS011;62601;51.044;13.788;2023-04-25T02:50:18;6.43;;;4.72;;
74245;SDS011;62601;51.044;13.788;2023-04-25T02:52:38;7.35;;;4.22;;
74245;SDS011;62601;51.044;13.788;2023-04-25T02:54:58;4.88;;;4.43;;
74245;SDS011;62601;51.044;13.788;2023-04-25T02:57:18;5.88;;;5.28;;
74245;SDS011;62601;51.044;13.788;2023-04-25T02:59:38;5.43;;;4.60;;
74245;SDS011;62601;51.044;13.788;2023-04-25T03:02:02;4.57;;;4.07;;
74245;SDS011;62601;51.044;13.788;2023-04-25T03:04:23;4.75;;;4.07;;
74245;SDS011;62601;51.044;13.788;2023-04-25T03:06:44;4.95;;;4.18;;
74245;SDS011;62601;51.044;13.788;2023-04-25T03:09:04;6.97;;;4.70;;
74245;SDS011;62601;51.044;13.788;2023-04-25T03:11:25;5.10;;;4.18;;
74245;SDS011;62601;51.044;13.788;2023-04-25T03:13:46;6.55;;;4.45;;
74245;SDS011;62601;51.044;13.788;2023-04-25T03:16:08;4.72;;;4.10;;
74245;SDS011;62601;51.044;13.788;2023-04-25T03:18:28;7.25;;;4.35;;
74245;SDS011;62601;51.044;13.788;2023-04-25T03:20:48;9.15;;;4.00;;
74245;SDS011;62601;51.044;13.788;2023-04-25T03:23:08;6.20;;;4.70;;
74245;SDS011;62601;51.044;13.788;2023-04-25T03:25:28;4.75;;;4.28;;
74245;SDS011;62601;51.044;13.788;2023-04-25T03:27:48;8.65;;;4.63;;
74245;SDS011;62601;51.044;13.788;2023-04-25T03:30:10;4.38;;;3.97;;
74245;SDS011;62601;51.044;13.788;2023-04-25T03:32:31;6.72;;;4.72;;
74245;SDS011;62601;51.044;13.788;2023-04-25T03:34:54;4.93;;;4.15;;
74245;SDS011;62601;51.044;13.788;2023-04-25T03:37:15;5.55;;;4.32;;
74245;SDS011;62601;51.044;13.788;2023-04-25T03:39:37;5.18;;;4.75;;
74245;SDS011;62601;51.044;13.788;2023-04-25T03:41:59;6.13;;;5.20;;
74245;SDS011;62601;51.044;13.788;2023-04-25T03:44:20;5.03;;;4.43;;
74245;SDS011;62601;51.044;13.788;2023-04-25T03:46:40;7.75;;;5.10;;
74245;SDS011;62601;51.044;13.788;2023-04-25T03:49:02;6.97;;;4.53;;
74245;SDS011;62601;51.044;13.788;2023-04-25T03:51:22;6.53;;;4.88;;
74245;SDS011;62601;51.044;13.788;2023-04-25T03:53:43;6.50;;;5.00;;
74245;SDS011;62601;51.044;13.788;2023-04-25T03:56:04;5.25;;;4.75;;
74245;SDS011;62601;51.044;13.788;2023-04-25T03:58:25;6.43;;;5.20;;
74245;SDS011;62601;51.044;13.788;2023-04-25T04:00:45;5.28;;;4.75;;
74245;SDS011;62601;51.044;13.788;2023-04-25T04:03:06;5.32;;;4.80;;
74245;SDS011;62601;51.044;13.788;2023-04-25T04:05:28;5.93;;;5.30;;
74245;SDS011;62601;51.044;13.788;2023-04-25T04:07:50;5.30;;;4.75;;
74245;SDS011;62601;51.044;13.788;2023-04-25T04:10:11;6.63;;;4.85;;
74245;SDS011;62601;51.044;13.788;2023-04-25T04:12:33;6.70;;;5.47;;
74245;SDS011;62601;51.044;13.788;2023-04-25T04:14:54;7.10;;;5.32;;
74245;SDS011;62601;51.044;13.788;2023-04-25T04:17:15;6.20;;;5.57;;
74245;SDS011;62601;51.044;13.788;2023-04-25T04:19:37;6.22;;;5.10;;
74245;SDS011;62601;51.044;13.788;2023-04-25T04:21:59;6.32;;;5.57;;
74245;SDS011;62601;51.044;13.788;2023-04-25T04:24:21;7.43;;;5.20;;
74245;SDS011;62601;51.044;13.788;2023-04-25T04:26:42;6.43;;;4.93;;
74245;SDS011;62601;51.044;13.788;2023-04-25T04:29:04;7.70;;;4.85;;
74245;SDS011;62601;51.044;13.788;2023-04-25T04:31:25;8.43;;;6.20;;
74245;SDS011;62601;51.044;13.788;2023-04-25T04:33:47;7.00;;;5.43;;
74245;SDS011;62601;51.044;13.788;2023-04-25T04:36:09;7.20;;;5.70;;
74245;SDS011;62601;51.044;13.788;2023-04-25T04:38:32;7.10;;;5.28;;
74245;SDS011;62601;51.044;13.788;2023-04-25T04:40:54;7.95;;;5.70;;
74245;SDS011;62601;51.044;13.788;2023-04-25T04:43:15;9.93;;;5.80;;
74245;SDS011;62601;51.044;13.788;2023-04-25T04:45:37;7.75;;;5.57;;
74245;SDS011;62601;51.044;13.788;2023-04-25T04:48:01;6.90;;;5.68;;
74245;SDS011;62601;51.044;13.788;2023-04-25T04:50:23;6.75;;;6.05;;
74245;SDS011;62601;51.044;13.788;2023-04-25T04:52:44;7.88;;;5.10;;
74245;SDS011;62601;51.044;13.788;2023-04-25T04:55:05;8.57;;;5.57;;
74245;SDS011;62601;51.044;13.788;2023-04-25T04:57:26;6.10;;;5.22;;
74245;SDS011;62601;51.044;13.788;2023-04-25T04:59:47;6.10;;;5.22;;
74245;SDS011;62601;51.044;13.788;2023-04-25T05:02:08;6.72;;;4.90;;
74245;SDS011;62601;51.044;13.788;2023-04-25T05:04:30;8.25;;;5.65;;
74245;SDS011;62601;51.044;13.788;2023-04-25T05:06:51;6.65;;;5.95;;
74245;SDS011;62601;51.044;13.788;2023-04-25T05:09:13;8.43;;;6.18;;
74245;SDS011;62601;51.044;13.788;2023-04-25T05:11:34;10.52;;;5.45;;
74245;SDS011;62601;51.044;13.788;2023-04-25T05:13:55;7.32;;;5.13;;
74245;SDS011;62601;51.044;13.788;2023-04-25T05:16:15;7.95;;;6.03;;
74245;SDS011;62601;51.044;13.788;2023-04-25T05:18:37;6.38;;;5.43;;
74245;SDS011;62601;51.044;13.788;2023-04-25T05:20:58;7.47;;;6.00;;
74245;SDS011;62601;51.044;13.788;2023-04-25T05:23:18;9.95;;;6.10;;
74245;SDS011;62601;51.044;13.788;2023-04-25T05:25:39;9.07;;;6.40;;
74245;SDS011;62601;51.044;13.788;2023-04-25T05:28:01;7.43;;;5.70;;
74245;SDS011;62601;51.044;13.788;2023-04-25T05:30:22;5.82;;;5.25;;
74245;SDS011;62601;51.044;13.788;2023-04-25T05:32:44;8.50;;;6.32;;
74245;SDS011;62601;51.044;13.788;2023-04-25T05:35:04;8.70;;;6.00;;
74245;SDS011;62601;51.044;13.788;2023-04-25T05:37:24;7.00;;;6.28;;
74245;SDS011;62601;51.044;13.788;2023-04-25T05:39:44;6.88;;;6.18;;
74245;SDS011;62601;51.044;13.788;2023-04-25T05:42:05;8.50;;;5.47;;
74245;SDS011;62601;51.044;13.788;2023-04-25T05:44:27;8.40;;;6.03;;
74245;SDS011;62601;51.044;13.788;2023-04-25T05:46:51;8.52;;;6.20;;
74245;SDS011;62601;51.044;13.788;2023-04-25T05:49:11;8.05;;;5.35;;
74245;SDS011;62601;51.044;13.788;2023-04-25T05:51:33;8.00;;;5.43;;
74245;SDS011;62601;51.044;13.788;2023-04-25T05:53:54;6.03;;;5.43;;
74245;SDS011;62601;51.044;13.788;2023-04-25T05:56:15;5.68;;;4.63;;
74245;SDS011;62601;51.044;13.788;2023-04-25T05:58:36;6.70;;;5.40;;
74245;SDS011;62601;51.044;13.788;2023-04-25T06:00:57;8.43;;;5.75;;
74245;SDS011;62601;51.044;13.788;2023-04-25T06:03:17;9.23;;;6.35;;
74245;SDS011;62601;51.044;13.788;2023-04-25T06:05:37;10.65;;;6.78;;
74245;SDS011;62601;51.044;13.788;2023-04-25T06:07:57;7.82;;;5.10;;
74245;SDS011;62601;51.044;13.788;2023-04-25T06:10:19;7.07;;;5.20;;
74245;SDS011;62601;51.044;13.788;2023-04-25T06:12:40;7.88;;;5.72;;
74245;SDS011;62601;51.044;13.788;2023-04-25T06:15:02;9.15;;;5.70;;
74245;SDS011;62601;51.044;13.788;2023-04-25T06:17:22;10.57;;;6.05;;
74245;SDS011;62601;51.044;13.788;2023-04-25T06:19:43;8.93;;;5.43;;
74245;SDS011;62601;51.044;13.788;2023-04-25T06:22:04;11.32;;;6.63;;
74245;SDS011;62601;51.044;13.788;2023-04-25T06:24:26;10.05;;;6.50;;
74245;SDS011;62601;51.044;13.788;2023-04-25T06:26:48;8.55;;;6.20;;
74245;SDS011;62601;51.044;13.788;2023-04-25T06:29:10;9.85;;;6.18;;
74245;SDS011;62601;51.044;13.788;2023-04-25T06:31:30;9.85;;;5.55;;
74245;SDS011;62601;51.044;13.788;2023-04-25T06:33:50;12.80;;;5.88;;
74245;SDS011;62601;51.044;13.788;2023-04-25T06:36:10;12.02;;;6.25;;
74245;SDS011;62601;51.044;13.788;2023-04-25T06:38:31;8.40;;;6.38;;
74245;SDS011;62601;51.044;13.788;2023-04-25T06:40:53;7.93;;;6.45;;
74245;SDS011;62601;51.044;13.788;2023-04-25T06:43:14;9.95;;;6.65;;
74245;SDS011;62601;51.044;13.788;2023-04-25T06:45:35;8.77;;;6.03;;
74245;SDS011;62601;51.044;13.788;2023-04-25T06:47:55;7.03;;;5.82;;
74245;SDS011;62601;51.044;13.788;2023-04-25T06:50:15;9.27;;;5.97;;
74245;SDS011;62601;51.044;13.788;2023-04-25T06:52:36;10.13;;;5.10;;
74245;SDS011;62601;51.044;13.788;2023-04-25T06:54:58;8.20;;;5.20;;
74245;SDS011;62601;51.044;13.788;2023-04-25T06:57:18;5.93;;;5.32;;
74245;SDS011;62601;51.044;13.788;2023-04-25T06:59:39;7.28;;;5.00;;
74245;SDS011;62601;51.044;13.788;2023-04-25T07:01:59;6.85;;;4.90;;
74245;SDS011;62601;51.044;13.788;2023-04-25T07:04:19;9.45;;;6.20;;
74245;SDS011;62601;51.044;13.788;2023-04-25T07:06:39;6.38;;;5.50;;
74245;SDS011;62601;51.044;13.788;2023-04-25T07:09:02;8.57;;;5.70;;
74245;SDS011;62601;51.044;13.788;2023-04-25T07:11:23;8.35;;;5.50;;
74245;SDS011;62601;51.044;13.788;2023-04-25T07:13:43;12.77;;;5.30;;
74245;SDS011;62601;51.044;13.788;2023-04-25T07:16:04;5.95;;;5.20;;
74245;SDS011;62601;51.044;13.788;2023-04-25T07:18:26;10.02;;;5.60;;
74245;SDS011;62601;51.044;13.788;2023-04-25T07:20:47;7.55;;;5.50;;
74245;SDS011;62601;51.044;13.788;2023-04-25T07:23:07;14.55;;;6.57;;
74245;SDS011;62601;51.044;13.788;2023-04-25T07:25:27;6.05;;;5.13;;
74245;SDS011;62601;51.044;13.788;2023-04-25T07:27:47;9.20;;;4.72;;
74245;SDS011;62601;51.044;13.788;2023-04-25T07:30:07;5.68;;;4.90;;
74245;SDS011;62601;51.044;13.788;2023-04-25T07:32:29;10.95;;;5.32;;
74245;SDS011;62601;51.044;13.788;2023-04-25T07:34:50;8.40;;;4.80;;
74245;SDS011;62601;51.044;13.788;2023-04-25T07:37:12;10.15;;;5.75;;
74245;SDS011;62601;51.044;13.788;2023-04-25T07:39:33;7.38;;;5.22;;
74245;SDS011;62601;51.044;13.788;2023-04-25T07:41:55;8.05;;;5.22;;
74245;SDS011;62601;51.044;13.788;2023-04-25T07:44:15;10.32;;;5.15;;
74245;SDS011;62601;51.044;13.788;2023-04-25T07:46:37;7.57;;;5.07;;
74245;SDS011;62601;51.044;13.788;2023-04-25T07:48:59;6.93;;;4.90;;
74245;SDS011;62601;51.044;13.788;2023-04-25T07:51:20;6.43;;;5.20;;
74245;SDS011;62601;51.044;13.788;2023-04-25T07:53:41;7.32;;;5.22;;
74245;SDS011;62601;51.044;13.788;2023-04-25T07:56:02;6.68;;;4.90;;
74245;SDS011;62601;51.044;13.788;2023-04-25T07:58:23;7.05;;;4.45;;
74245;SDS011;62601;51.044;13.788;2023-04-25T08:00:44;6.50;;;4.65;;
74245;SDS011;62601;51.044;13.788;2023-04-25T08:03:05;7.93;;;4.85;;
74245;SDS011;62601;51.044;13.788;2023-04-25T08:05:26;5.10;;;4.60;;
74245;SDS011;62601;51.044;13.788;2023-04-25T08:07:46;5.88;;;4.28;;
74245;SDS011;62601;51.044;13.788;2023-04-25T08:10:08;6.68;;;4.30;;
74245;SDS011;62601;51.044;13.788;2023-04-25T08:12:29;7.60;;;4.72;;
74245;SDS011;62601;51.044;13.788;2023-04-25T08:14:50;4.57;;;3.50;;
74245;SDS011;62601;51.044;13.788;2023-04-25T08:17:10;3.58;;;3.25;;
74245;SDS011;62601;51.044;13.788;2023-04-25T08:19:31;3.80;;;3.50;;
74245;SDS011;62601;51.044;13.788;2023-04-25T08:21:51;10.43;;;4.38;;
74245;SDS011;62601;51.044;13.788;2023-04-25T08:24:11;4.90;;;3.58;;
74245;SDS011;62601;51.044;13.788;2023-04-25T08:26:31;6.10;;;3.72;;
74245;SDS011;62601;51.044;13.788;2023-04-25T08:28:51;3.90;;;3.45;;
74245;SDS011;62601;51.044;13.788;2023-04-25T08:31:11;5.75;;;3.15;;
74245;SDS011;62601;51.044;13.788;2023-04-25T08:33:32;5.18;;;3.53;;
74245;SDS011;62601;51.044;13.788;2023-04-25T08:35:52;4.60;;;4.05;;
74245;SDS011;62601;51.044;13.788;2023-04-25T08:38:12;6.95;;;3.40;;
74245;SDS011;62601;51.044;13.788;2023-04-25T08:40:34;7.53;;;3.88;;
74245;SDS011;62601;51.044;13.788;2023-04-25T08:42:59;5.43;;;3.45;;
74245;SDS011;62601;51.044;13.788;2023-04-25T08:45:20;3.10;;;2.80;;
74245;SDS011;62601;51.044;13.788;2023-04-25T08:47:40;4.43;;;3.30;;
74245;SDS011;62601;51.044;13.788;2023-04-25T08:50:03;4.75;;;3.25;;
74245;SDS011;62601;51.044;13.788;2023-04-25T08:52:23;6.28;;;5.10;;
74245;SDS011;62601;51.044;13.788;2023-04-25T08:54:43;9.40;;;3.78;;
74245;SDS011;62601;51.044;13.788;2023-04-25T08:57:07;9.38;;;3.85;;
74245;SDS011;62601;51.044;13.788;2023-04-25T08:59:28;4.65;;;3.70;;
74245;SDS011;62601;51.044;13.788;2023-04-25T09:01:49;5.05;;;3.92;;
74245;SDS011;62601;51.044;13.788;2023-04-25T09:04:10;4.20;;;3.33;;
74245;SDS011;62601;51.044;13.788;2023-04-25T09:06:32;8.65;;;4.35;;
74245;SDS011;62601;51.044;13.788;2023-04-25T09:08:54;5.63;;;4.20;;
74245;SDS011;62601;51.044;13.788;2023-04-25T09:11:15;5.53;;;3.90;;
74245;SDS011;62601;51.044;13.788;2023-04-25T09:13:36;8.13;;;4.90;;
74245;SDS011;62601;51.044;13.788;2023-04-25T09:15:58;4.72;;;4.30;;
74245;SDS011;62601;51.044;13.788;2023-04-25T09:18:37;4.53;;;4.13;;
74245;SDS011;62601;51.044;13.788;2023-04-25T09:21:08;6.28;;;4.35;;
74245;SDS011;62601;51.044;13.788;2023-04-25T09:23:29;5.20;;;4.70;;
74245;SDS011;62601;51.044;13.788;2023-04-25T09:25:51;4.65;;;4.05;;
74245;SDS011;62601;51.044;13.788;2023-04-25T09:28:13;6.88;;;5.30;;
74245;SDS011;62601;51.044;13.788;2023-04-25T09:30:33;6.65;;;5.00;;
74245;SDS011;62601;51.044;13.788;2023-04-25T09:33:05;6.47;;;5.15;;
74245;SDS011;62601;51.044;13.788;2023-04-25T09:35:26;6.10;;;5.50;;
74245;SDS011;62601;51.044;13.788;2023-04-25T09:37:50;6.22;;;5.20;;
74245;SDS011;62601;51.044;13.788;2023-04-25T09:40:12;5.90;;;4.97;;
74245;SDS011;62601;51.044;13.788;2023-04-25T09:42:32;5.68;;;3.90;;
74245;SDS011;62601;51.044;13.788;2023-04-25T09:44:54;5.80;;;4.30;;
74245;SDS011;62601;51.044;13.788;2023-04-25T09:47:16;7.43;;;4.95;;
74245;SDS011;62601;51.044;13.788;2023-04-25T09:49:40;11.48;;;6.30;;
74245;SDS011;62601;51.044;13.788;2023-04-25T09:52:01;7.15;;;5.50;;
74245;SDS011;62601;51.044;13.788;2023-04-25T09:54:21;10.55;;;6.47;;
74245;SDS011;62601;51.044;13.788;2023-04-25T09:56:41;6.50;;;5.65;;
74245;SDS011;62601;51.044;13.788;2023-04-25T09:59:01;7.97;;;6.10;;
74245;SDS011;62601;51.044;13.788;2023-04-25T10:01:23;7.65;;;5.20;;
74245;SDS011;62601;51.044;13.788;2023-04-25T10:03:45;7.50;;;5.68;;
74245;SDS011;62601;51.044;13.788;2023-04-25T10:06:12;7.10;;;5.38;;
74245;SDS011;62601;51.044;13.788;2023-04-25T10:08:34;7.00;;;5.65;;
74245;SDS011;62601;51.044;13.788;2023-04-25T10:10:56;6.68;;;6.00;;
74245;SDS011;62601;51.044;13.788;2023-04-25T10:13:17;9.52;;;6.10;;
74245;SDS011;62601;51.044;13.788;2023-04-25T10:15:37;7.03;;;5.93;;
74245;SDS011;62601;51.044;13.788;2023-04-25T10:17:59;9.57;;;5.97;;
74245;SDS011;62601;51.044;13.788;2023-04-25T10:20:20;5.72;;;5.10;;
74245;SDS011;62601;51.044;13.788;2023-04-25T10:22:45;5.32;;;4.82;;
74245;SDS011;62601;51.044;13.788;2023-04-25T10:25:11;7.45;;;5.55;;
74245;SDS011;62601;51.044;13.788;2023-04-25T10:27:33;5.47;;;4.97;;
74245;SDS011;62601;51.044;13.788;2023-04-25T10:30:00;7.32;;;5.10;;
74245;SDS011;62601;51.044;13.788;2023-04-25T10:32:22;6.15;;;4.43;;
74245;SDS011;62601;51.044;13.788;2023-04-25T10:34:43;4.97;;;4.57;;
74245;SDS011;62601;51.044;13.788;2023-04-25T10:37:05;7.70;;;5.30;;
74245;SDS011;62601;51.044;13.788;2023-04-25T10:39:26;5.35;;;4.85;;
74245;SDS011;62601;51.044;13.788;2023-04-25T10:41:52;8.50;;;5.40;;
74245;SDS011;62601;51.044;13.788;2023-04-25T10:44:17;6.03;;;5.43;;
74245;SDS011;62601;51.044;13.788;2023-04-25T10:46:41;5.72;;;4.80;;
74245;SDS011;62601;51.044;13.788;2023-04-25T10:49:02;5.75;;;5.15;;
74245;SDS011;62601;51.044;13.788;2023-04-25T10:51:23;9.20;;;4.90;;
74245;SDS011;62601;51.044;13.788;2023-04-25T10:53:48;8.73;;;5.05;;
74245;SDS011;62601;51.044;13.788;2023-04-25T10:56:19;7.25;;;5.63;;
74245;SDS011;62601;51.044;13.788;2023-04-25T10:58:43;5.82;;;5.20;;
74245;SDS011;62601;51.044;13.788;2023-04-25T11:01:06;7.40;;;5.20;;
74245;SDS011;62601;51.044;13.788;2023-04-25T11:03:30;5.53;;;4.90;;
74245;SDS011;62601;51.044;13.788;2023-04-25T11:05:50;6.45;;;5.05;;
74245;SDS011;62601;51.044;13.788;2023-04-25T11:08:11;6.43;;;5.55;;
74245;SDS011;62601;51.044;13.788;2023-04-25T11:10:32;6.72;;;5.00;;
74245;SDS011;62601;51.044;13.788;2023-04-25T11:12:52;8.18;;;5.70;;
74245;SDS011;62601;51.044;13.788;2023-04-25T11:15:14;8.10;;;6.35;;
74245;SDS011;62601;51.044;13.788;2023-04-25T11:17:35;6.38;;;5.78;;
74245;SDS011;62601;51.044;13.788;2023-04-25T11:19:57;7.40;;;5.57;;
74245;SDS011;62601;51.044;13.788;2023-04-25T11:22:18;8.55;;;5.75;;
74245;SDS011;62601;51.044;13.788;2023-04-25T11:24:41;10.82;;;6.20;;
74245;SDS011;62601;51.044;13.788;2023-04-25T11:27:03;9.15;;;5.57;;
74245;SDS011;62601;51.044;13.788;2023-04-25T11:29:32;6.60;;;5.05;;
74245;SDS011;62601;51.044;13.788;2023-04-25T11:31:52;10.07;;;5.60;;
74245;SDS011;62601;51.044;13.788;2023-04-25T11:34:17;10.82;;;4.95;;
74245;SDS011;62601;51.044;13.788;2023-04-25T11:36:39;9.27;;;4.85;;
74245;SDS011;62601;51.044;13.788;2023-04-25T11:39:00;4.85;;;3.33;;
74245;SDS011;62601;51.044;13.788;2023-04-25T11:41:22;7.40;;;3.17;;
74245;SDS011;62601;51.044;13.788;2023-04-25T11:43:42;5.28;;;3.05;;
74245;SDS011;62601;51.044;13.788;2023-04-25T11:46:07;3.90;;;2.97;;
74245;SDS011;62601;51.044;13.788;2023-04-25T11:48:28;3.70;;;2.95;;
74245;SDS011;62601;51.044;13.788;2023-04-25T11:50:57;4.20;;;3.25;;
74245;SDS011;62601;51.044;13.788;2023-04-25T11:53:21;3.67;;;2.90;;
74245;SDS011;62601;51.044;13.788;2023-04-25T11:55:43;5.10;;;3.00;;
74245;SDS011;62601;51.044;13.788;2023-04-25T11:58:07;3.35;;;2.45;;
74245;SDS011;62601;51.044;13.788;2023-04-25T12:00:28;3.88;;;1.98;;
74245;SDS011;62601;51.044;13.788;2023-04-25T12:02:53;4.18;;;2.22;;
74245;SDS011;62601;51.044;13.788;2023-04-25T12:05:15;3.45;;;2.50;;
74245;SDS011;62601;51.044;13.788;2023-04-25T12:07:37;5.63;;;2.28;;
74245;SDS011;62601;51.044;13.788;2023-04-25T12:09:58;4.55;;;2.75;;
74245;SDS011;62601;51.044;13.788;2023-04-25T12:12:19;5.00;;;2.42;;
74245;SDS011;62601;51.044;13.788;2023-04-25T12:14:41;5.38;;;2.40;;
74245;SDS011;62601;51.044;13.788;2023-04-25T12:17:07;4.65;;;2.40;;
74245;SDS011;62601;51.044;13.788;2023-04-25T12:19:35;4.57;;;2.53;;
74245;SDS011;62601;51.044;13.788;2023-04-25T12:21:57;3.22;;;2.60;;
74245;SDS011;62601;51.044;13.788;2023-04-25T12:24:25;4.10;;;3.17;;
74245;SDS011;62601;51.044;13.788;2023-04-25T12:26:53;5.65;;;3.17;;
74245;SDS011;62601;51.044;13.788;2023-04-25T12:29:23;5.10;;;3.13;;
74245;SDS011;62601;51.044;13.788;2023-04-25T12:31:45;3.90;;;3.42;;
74245;SDS011;62601;51.044;13.788;2023-04-25T12:34:09;11.38;;;3.35;;
74245;SDS011;62601;51.044;13.788;2023-04-25T12:36:30;5.88;;;3.38;;
74245;SDS011;62601;51.044;13.788;2023-04-25T12:38:51;6.60;;;3.35;;
74245;SDS011;62601;51.044;13.788;2023-04-25T12:41:11;9.55;;;3.25;;
74245;SDS011;62601;51.044;13.788;2023-04-25T12:43:31;6.28;;;3.05;;
74245;SDS011;62601;51.044;13.788;2023-04-25T12:45:52;6.10;;;3.15;;
74245;SDS011;62601;51.044;13.788;2023-04-25T12:48:12;9.68;;;3.60;;
74245;SDS011;62601;51.044;13.788;2023-04-25T12:50:32;5.32;;;3.35;;
74245;SDS011;62601;51.044;13.788;2023-04-25T12:52:52;7.15;;;3.40;;
74245;SDS011;62601;51.044;13.788;2023-04-25T12:55:12;8.85;;;3.65;;
74245;SDS011;62601;51.044;13.788;2023-04-25T12:57:35;8.50;;;4.23;;
74245;SDS011;62601;51.044;13.788;2023-04-25T12:59:56;5.77;;;3.80;;
74245;SDS011;62601;51.044;13.788;2023-04-25T13:02:16;5.77;;;3.77;;
74245;SDS011;62601;51.044;13.788;2023-04-25T13:04:36;9.30;;;4.25;;
74245;SDS011;62601;51.044;13.788;2023-04-25T13:06:56;10.95;;;3.70;;
74245;SDS011;62601;51.044;13.788;2023-04-25T13:09:16;6.75;;;3.97;;
74245;SDS011;62601;51.044;13.788;2023-04-25T13:11:36;9.48;;;4.55;;
74245;SDS011;62601;51.044;13.788;2023-04-25T13:13:56;7.60;;;3.83;;
74245;SDS011;62601;51.044;13.788;2023-04-25T13:16:16;7.22;;;4.07;;
74245;SDS011;62601;51.044;13.788;2023-04-25T13:18:36;17.02;;;5.00;;
74245;SDS011;62601;51.044;13.788;2023-04-25T13:20:57;13.25;;;4.00;;
74245;SDS011;62601;51.044;13.788;2023-04-25T13:23:17;7.15;;;4.22;;
74245;SDS011;62601;51.044;13.788;2023-04-25T13:25:37;5.32;;;4.13;;
74245;SDS011;62601;51.044;13.788;2023-04-25T13:27:57;8.38;;;5.10;;
74245;SDS011;62601;51.044;13.788;2023-04-25T13:30:17;8.98;;;4.95;;
74245;SDS011;62601;51.044;13.788;2023-04-25T13:32:37;10.15;;;6.45;;
74245;SDS011;62601;51.044;13.788;2023-04-25T13:34:57;18.35;;;6.80;;
74245;SDS011;62601;51.044;13.788;2023-04-25T13:37:18;11.10;;;5.25;;
74245;SDS011;62601;51.044;13.788;2023-04-25T13:39:38;10.38;;;4.47;;
74245;SDS011;62601;51.044;13.788;2023-04-25T13:41:58;8.95;;;4.38;;
74245;SDS011;62601;51.044;13.788;2023-04-25T13:44:18;11.02;;;4.53;;
74245;SDS011;62601;51.044;13.788;2023-04-25T13:46:38;6.63;;;3.78;;
74245;SDS011;62601;51.044;13.788;2023-04-25T13:48:58;9.95;;;4.28;;
74245;SDS011;62601;51.044;13.788;2023-04-25T13:51:18;9.93;;;4.30;;
74245;SDS011;62601;51.044;13.788;2023-04-25T13:53:38;8.90;;;4.13;;
74245;SDS011;62601;51.044;13.788;2023-04-25T13:55:58;8.05;;;3.85;;
74245;SDS011;62601;51.044;13.788;2023-04-25T13:58:18;13.70;;;4.72;;